Time;durP1;ratioP1;P1;durP2;ratioP2;P2;SDS_P1;SDS_P2;PMS_P1;PMS_P2;Temp;Humidity;BMP_temperature;BMP_pressure;BME280_temperature;BME280_humidity;BME280_pressure;Samples;Min_cycle;Max_cycle;Signal;HPM_P1;HPM_P2
2022/02/27 00:00:18;;;;;;;28.17;7.75;;;4.20;99.90;;;;;;5034421;28;20505;-54
2022/02/27 00:02:43;;;;;;;20.13;8.23;;;4.20;99.90;;;;;;5033871;28;20102;-54
2022/02/27 00:05:10;;;;;;;22.75;8.05;;;4.10;99.90;;;;;;5034507;28;20064;-54
2022/02/27 00:07:36;;;;;;;19.05;7.88;;;4.10;99.90;;;;;;5033815;28;20025;-54
2022/02/27 00:10:02;;;;;;;22.33;7.18;;;4.10;99.90;;;;;;5032987;28;20037;-53
2022/02/27 00:12:28;;;;;;;19.85;8.23;;;4.10;99.90;;;;;;5034219;28;20118;-53
2022/02/27 00:14:54;;;;;;;18.60;7.05;;;4.00;99.90;;;;;;5033922;28;20021;-53
2022/02/27 00:17:19;;;;;;;24.15;7.85;;;4.00;99.90;;;;;;5033695;28;20030;-53
2022/02/27 00:19:45;;;;;;;18.90;7.50;;;3.90;99.90;;;;;;5033585;28;20025;-53
2022/02/27 00:22:11;;;;;;;19.45;7.10;;;3.90;99.90;;;;;;5034467;28;20075;-53
2022/02/27 00:24:36;;;;;;;18.70;6.75;;;3.70;99.90;;;;;;5034464;28;20447;-52
2022/02/27 00:27:02;;;;;;;19.58;6.90;;;3.70;99.90;;;;;;5033963;28;20071;-53
2022/02/27 00:29:28;;;;;;;19.80;6.43;;;3.60;99.90;;;;;;5034050;28;20064;-54
2022/02/27 00:31:53;;;;;;;17.27;6.35;;;3.60;99.90;;;;;;5033660;28;20073;-54
2022/02/27 00:34:19;;;;;;;17.50;5.75;;;3.50;99.90;;;;;;5034049;28;20033;-54
2022/02/27 00:36:46;;;;;;;16.50;6.18;;;3.60;99.90;;;;;;5033619;28;20043;-54
2022/02/27 00:39:13;;;;;;;18.23;5.50;;;3.70;99.90;;;;;;5033659;28;20026;-54
2022/02/27 00:41:40;;;;;;;14.98;5.93;;;3.70;99.90;;;;;;5033524;28;20499;-54
2022/02/27 00:44:06;;;;;;;16.27;5.57;;;3.70;99.90;;;;;;5034023;28;20277;-56
2022/02/27 00:46:32;;;;;;;16.58;5.95;;;3.50;99.90;;;;;;5033311;28;20492;-54
2022/02/27 00:48:57;;;;;;;16.02;5.95;;;3.70;99.90;;;;;;5032667;28;20030;-54
2022/02/27 00:51:23;;;;;;;16.73;5.55;;;3.90;99.90;;;;;;5032755;28;20025;-53
2022/02/27 00:53:49;;;;;;;14.02;5.05;;;4.00;99.90;;;;;;5033510;28;20053;-53
2022/02/27 00:56:14;;;;;;;17.02;6.00;;;3.80;99.90;;;;;;5033120;28;20487;-53
2022/02/27 00:58:40;;;;;;;15.88;6.35;;;3.60;99.90;;;;;;5033514;28;20025;-53
2022/02/27 01:01:06;;;;;;;13.43;5.55;;;3.70;99.90;;;;;;5033284;28;20040;-53
2022/02/27 01:03:31;;;;;;;19.77;6.05;;;3.80;99.90;;;;;;5033191;28;20052;-54
2022/02/27 01:05:57;;;;;;;16.42;5.72;;;3.70;99.90;;;;;;5033116;28;20079;-54
2022/02/27 01:08:23;;;;;;;22.05;6.45;;;3.80;99.90;;;;;;5033488;28;20364;-54
2022/02/27 01:10:48;;;;;;;19.70;5.82;;;3.80;99.90;;;;;;5033493;28;20029;-54
2022/02/27 01:13:14;;;;;;;15.98;5.38;;;3.80;99.90;;;;;;5033254;28;20021;-53
2022/02/27 01:15:39;;;;;;;16.27;5.28;;;3.90;99.90;;;;;;5033314;28;20021;-54
2022/02/27 01:18:05;;;;;;;16.90;5.53;;;3.90;99.90;;;;;;5032983;28;20023;-54
2022/02/27 01:20:31;;;;;;;11.38;5.30;;;3.70;99.90;;;;;;5033015;28;20052;-53
2022/02/27 01:22:56;;;;;;;15.65;5.20;;;3.60;99.90;;;;;;5033278;28;20026;-54
2022/02/27 01:25:22;;;;;;;16.60;5.38;;;3.40;99.90;;;;;;5033040;28;20044;-54
2022/02/27 01:27:47;;;;;;;15.77;5.72;;;3.30;99.90;;;;;;5032662;28;20111;-55
2022/02/27 01:30:13;;;;;;;17.48;5.63;;;3.20;99.90;;;;;;5032428;28;20025;-54
2022/02/27 01:32:40;;;;;;;14.07;5.63;;;3.20;99.90;;;;;;5032821;28;20442;-54
2022/02/27 01:35:09;;;;;;;17.45;4.68;;;3.50;99.90;;;;;;5032833;28;20021;-54
2022/02/27 01:37:35;;;;;;;17.92;4.93;;;3.60;99.90;;;;;;5032534;28;20029;-53
2022/02/27 01:40:01;;;;;;;17.63;4.22;;;3.60;99.90;;;;;;5032993;28;20368;-53
2022/02/27 01:42:27;;;;;;;13.68;5.03;;;3.50;99.90;;;;;;5032288;28;20041;-53
2022/02/27 01:44:53;;;;;;;16.30;5.28;;;3.60;99.90;;;;;;5032677;28;20378;-53
2022/02/27 01:47:18;;;;;;;18.65;4.97;;;3.70;99.90;;;;;;5032365;28;20029;-53
2022/02/27 01:49:45;;;;;;;17.95;5.47;;;3.70;99.90;;;;;;5032474;28;20537;-54
2022/02/27 01:52:12;;;;;;;21.48;5.85;;;3.60;99.90;;;;;;5032933;28;20033;-53
2022/02/27 01:54:39;;;;;;;17.88;5.13;;;3.50;99.90;;;;;;5032810;28;20014;-54
2022/02/27 01:57:05;;;;;;;14.68;5.28;;;3.50;99.90;;;;;;5032830;28;20025;-54
2022/02/27 01:59:30;;;;;;;17.48;5.30;;;3.30;99.90;;;;;;5032307;28;20109;-54
2022/02/27 02:01:56;;;;;;;17.05;5.50;;;3.20;99.90;;;;;;5032328;28;20029;-53
2022/02/27 02:04:22;;;;;;;17.77;5.88;;;3.40;99.90;;;;;;5032375;28;20036;-53
2022/02/27 02:06:47;;;;;;;21.48;5.20;;;3.30;99.90;;;;;;5032216;28;20041;-53
2022/02/27 02:09:13;;;;;;;15.85;5.15;;;3.30;99.90;;;;;;5031847;28;20025;-53
2022/02/27 02:11:39;;;;;;;15.63;5.47;;;3.30;99.90;;;;;;5031977;28;20433;-53
2022/02/27 02:14:06;;;;;;;15.98;5.63;;;3.20;99.90;;;;;;5031932;28;20030;-53
2022/02/27 02:16:46;;;;;;;19.10;5.22;;;3.20;99.90;;;;;;5032219;28;20030;-53
2022/02/27 02:19:15;;;;;;;19.40;5.25;;;3.10;99.90;;;;;;5032260;28;20104;-53
2022/02/27 02:21:47;;;;;;;11.70;4.97;;;3.00;99.90;;;;;;5031961;28;20112;-53
2022/02/27 02:24:14;;;;;;;16.40;6.25;;;3.00;99.90;;;;;;5032068;28;20570;-54
2022/02/27 02:26:41;;;;;;;13.00;5.13;;;3.10;99.90;;;;;;5031775;28;20422;-53
2022/02/27 02:29:09;;;;;;;15.00;4.80;;;3.10;99.90;;;;;;5032168;28;20049;-53
2022/02/27 02:31:35;;;;;;;21.70;5.80;;;3.10;99.90;;;;;;5031196;28;20104;-53
2022/02/27 02:34:12;;;;;;;14.25;4.85;;;3.00;99.90;;;;;;5031493;28;20029;-53
2022/02/27 02:36:39;;;;;;;16.95;5.13;;;2.90;99.90;;;;;;5031717;28;20021;-53
2022/02/27 02:39:07;;;;;;;17.02;4.97;;;2.90;99.90;;;;;;5031402;28;20453;-54
2022/02/27 02:41:33;;;;;;;16.40;5.05;;;3.10;99.90;;;;;;5031693;28;20022;-54
2022/02/27 02:43:59;;;;;;;21.38;5.35;;;3.10;99.90;;;;;;5031312;28;20030;-54
2022/02/27 02:46:25;;;;;;;20.63;5.60;;;3.00;99.90;;;;;;5032321;28;20060;-54
2022/02/27 02:48:51;;;;;;;18.42;5.05;;;2.80;99.90;;;;;;5031615;28;20018;-54
2022/02/27 02:51:17;;;;;;;14.98;5.30;;;2.90;99.90;;;;;;5031837;28;20040;-54
2022/02/27 02:53:43;;;;;;;19.33;5.30;;;2.90;99.90;;;;;;5032362;28;20018;-54
2022/02/27 02:56:09;;;;;;;19.50;5.70;;;3.00;99.90;;;;;;5030746;28;20026;-54
2022/02/27 02:58:39;;;;;;;26.42;5.85;;;3.00;99.90;;;;;;5031806;28;20550;-54
2022/02/27 03:01:05;;;;;;;13.85;4.97;;;3.00;99.90;;;;;;5031614;28;20018;-54
2022/02/27 03:03:31;;;;;;;15.05;5.93;;;3.00;99.90;;;;;;5031381;28;20417;-54
2022/02/27 03:05:56;;;;;;;17.95;5.85;;;2.90;99.90;;;;;;5031681;28;20029;-54
2022/02/27 03:08:22;;;;;;;12.45;5.40;;;2.80;99.90;;;;;;5031265;28;20030;-54
2022/02/27 03:10:48;;;;;;;20.50;5.18;;;2.70;99.90;;;;;;5030473;28;20030;-53
2022/02/27 03:13:13;;;;;;;16.30;4.95;;;2.80;99.90;;;;;;5031600;28;20541;-53
2022/02/27 03:15:39;;;;;;;19.77;5.88;;;2.70;99.90;;;;;;5031806;28;20024;-53
2022/02/27 03:18:05;;;;;;;16.13;5.07;;;2.50;99.90;;;;;;5031476;28;20483;-53
2022/02/27 03:20:33;;;;;;;16.38;5.30;;;2.40;99.90;;;;;;5031558;28;20033;-53
2022/02/27 03:22:59;;;;;;;19.13;4.70;;;2.40;99.90;;;;;;5031487;28;20026;-53
2022/02/27 03:25:26;;;;;;;18.50;5.63;;;2.70;99.90;;;;;;5030954;28;20067;-53
2022/02/27 03:27:52;;;;;;;16.38;5.38;;;2.80;99.90;;;;;;5028633;28;20048;-53
2022/02/27 03:30:18;;;;;;;18.25;5.53;;;2.70;99.90;;;;;;5031149;28;20041;-53
2022/02/27 03:32:46;;;;;;;17.42;5.65;;;2.60;99.90;;;;;;5030842;28;20505;-53
2022/02/27 03:35:16;;;;;;;17.95;5.65;;;2.50;99.90;;;;;;5031533;28;20026;-53
2022/02/27 03:37:42;;;;;;;22.00;5.82;;;2.40;99.90;;;;;;5031815;28;20512;-54
2022/02/27 03:40:08;;;;;;;14.02;5.32;;;2.30;99.90;;;;;;5031026;28;20037;-53
2022/02/27 03:42:34;;;;;;;11.70;5.15;;;2.20;99.90;;;;;;5031192;28;20025;-52
2022/02/27 03:44:59;;;;;;;15.50;5.18;;;2.20;99.90;;;;;;5033436;28;20375;-53
2022/02/27 03:47:25;;;;;;;15.32;5.28;;;2.40;99.90;;;;;;5034625;28;20263;-53
2022/02/27 03:49:51;;;;;;;15.55;5.30;;;2.40;99.90;;;;;;5034790;28;20029;-54
2022/02/27 03:52:17;;;;;;;17.08;5.88;;;2.30;99.90;;;;;;5034676;28;20032;-53
2022/02/27 03:54:43;;;;;;;15.63;5.25;;;2.20;99.90;;;;;;5034769;28;20087;-54
2022/02/27 03:57:08;;;;;;;18.73;5.88;;;2.00;99.90;;;;;;5033985;28;20037;-53
2022/02/27 03:59:34;;;;;;;16.70;5.32;;;2.00;99.90;;;;;;5033705;28;20033;-54
2022/02/27 04:02:00;;;;;;;17.77;5.82;;;1.90;99.90;;;;;;5034062;28;20026;-54
2022/02/27 04:04:25;;;;;;;17.42;5.47;;;1.90;99.90;;;;;;5035141;28;20081;-54
2022/02/27 04:06:51;;;;;;;18.27;5.40;;;1.90;99.90;;;;;;5034289;28;20482;-55
2022/02/27 04:09:16;;;;;;;20.15;6.15;;;1.80;99.90;;;;;;5033966;28;20022;-55
2022/02/27 04:11:42;;;;;;;18.48;5.35;;;1.80;99.90;;;;;;5034324;28;20079;-55
2022/02/27 04:14:08;;;;;;;17.58;5.78;;;1.80;99.90;;;;;;5033913;28;20041;-54
2022/02/27 04:16:33;;;;;;;15.88;5.78;;;1.70;99.90;;;;;;5033894;28;20044;-55
2022/02/27 04:18:59;;;;;;;18.52;6.15;;;1.80;99.90;;;;;;5034565;28;20589;-54
2022/02/27 04:21:25;;;;;;;19.92;6.15;;;2.10;99.90;;;;;;5033812;28;20025;-54
2022/02/27 04:23:50;;;;;;;15.18;5.82;;;2.00;99.90;;;;;;5033976;28;20414;-53
2022/02/27 04:26:16;;;;;;;21.52;5.35;;;1.90;99.90;;;;;;5033803;28;20717;-54
2022/02/27 04:28:41;;;;;;;18.65;5.20;;;1.80;99.90;;;;;;5033764;28;20056;-55
2022/02/27 04:31:07;;;;;;;14.32;5.32;;;1.60;99.90;;;;;;5033416;28;20045;-54
2022/02/27 04:33:33;;;;;;;17.08;5.25;;;1.50;99.90;;;;;;5033802;28;20021;-54
2022/02/27 04:35:58;;;;;;;18.70;5.65;;;1.60;99.90;;;;;;5033964;28;20030;-54
2022/02/27 04:38:24;;;;;;;14.02;5.47;;;1.70;99.90;;;;;;5033654;28;20030;-54
2022/02/27 04:40:49;;;;;;;18.17;5.53;;;1.90;99.90;;;;;;5033777;28;20036;-54
2022/02/27 04:43:15;;;;;;;15.75;5.38;;;1.80;99.90;;;;;;5033721;28;20073;-54
2022/02/27 04:45:41;;;;;;;13.27;5.00;;;1.80;99.90;;;;;;5034003;28;20076;-54
2022/02/27 04:48:07;;;;;;;14.73;4.97;;;1.70;99.90;;;;;;5033451;28;20112;-54
2022/02/27 04:50:33;;;;;;;19.98;5.15;;;1.70;99.90;;;;;;5033453;28;20130;-54
2022/02/27 04:52:58;;;;;;;22.02;5.72;;;1.80;99.90;;;;;;5033349;28;20025;-54
2022/02/27 04:55:24;;;;;;;23.05;5.38;;;1.80;99.90;;;;;;5033200;28;20036;-54
2022/02/27 04:57:50;;;;;;;16.15;5.35;;;1.60;99.90;;;;;;5033532;28;20021;-54
2022/02/27 05:00:15;;;;;;;19.05;5.38;;;1.60;99.90;;;;;;5032754;28;20109;-54
2022/02/27 05:02:41;;;;;;;21.73;5.38;;;1.80;99.90;;;;;;5033007;28;20132;-54
2022/02/27 05:05:07;;;;;;;15.98;5.80;;;1.90;99.90;;;;;;5032744;28;20516;-55
2022/02/27 05:07:33;;;;;;;16.52;5.00;;;1.80;99.90;;;;;;5032290;28;20032;-54
2022/02/27 05:10:00;;;;;;;21.80;5.47;;;1.90;99.90;;;;;;5033739;28;20375;-54
2022/02/27 05:12:26;;;;;;;17.60;5.53;;;1.80;99.90;;;;;;5033199;28;20029;-54
2022/02/27 05:14:52;;;;;;;17.55;5.10;;;1.80;99.90;;;;;;5033329;28;20395;-54
2022/02/27 05:17:18;;;;;;;15.68;5.10;;;1.70;99.90;;;;;;5032937;28;20031;-54
2022/02/27 05:19:44;;;;;;;14.77;5.15;;;1.60;99.90;;;;;;5033103;28;20534;-54
2022/02/27 05:22:09;;;;;;;15.30;4.72;;;1.40;99.90;;;;;;5032853;28;20030;-54
2022/02/27 05:24:35;;;;;;;12.70;4.72;;;1.40;99.90;;;;;;5032803;28;20091;-55
2022/02/27 05:27:00;;;;;;;15.32;4.88;;;1.40;99.90;;;;;;5033025;28;20033;-55
2022/02/27 05:29:26;;;;;;;14.63;4.93;;;1.30;99.90;;;;;;5032783;28;20439;-55
2022/02/27 05:31:52;;;;;;;15.70;4.88;;;1.30;99.90;;;;;;5032819;28;20080;-54
2022/02/27 05:34:18;;;;;;;17.42;5.55;;;1.30;99.90;;;;;;5033014;28;20032;-54
2022/02/27 05:36:44;;;;;;;15.13;4.85;;;1.40;99.90;;;;;;5033022;28;20025;-54
2022/02/27 05:39:10;;;;;;;14.05;4.82;;;1.30;99.90;;;;;;5033078;28;20395;-54
2022/02/27 05:41:36;;;;;;;15.43;5.00;;;1.40;99.90;;;;;;5032025;28;20029;-55
2022/02/27 05:44:02;;;;;;;16.13;5.25;;;1.30;99.90;;;;;;5032960;28;20030;-54
2022/02/27 05:46:28;;;;;;;13.43;5.43;;;1.20;99.90;;;;;;5032686;28;20033;-54
2022/02/27 05:48:53;;;;;;;16.58;5.10;;;1.30;99.90;;;;;;5032177;28;20569;-54
2022/02/27 05:51:19;;;;;;;17.10;4.20;;;1.30;99.90;;;;;;5032379;28;20026;-53
2022/02/27 05:53:45;;;;;;;15.18;4.72;;;1.30;99.90;;;;;;5031837;28;20017;-55
2022/02/27 05:56:13;;;;;;;15.20;4.47;;;1.40;99.90;;;;;;5032378;28;20383;-54
2022/02/27 05:58:39;;;;;;;13.18;4.50;;;1.60;99.90;;;;;;5032497;28;20033;-53
2022/02/27 06:01:05;;;;;;;13.48;4.40;;;1.60;99.90;;;;;;5032615;28;20048;-54
2022/02/27 06:03:30;;;;;;;12.77;4.43;;;1.60;99.90;;;;;;5032309;28;20037;-54
2022/02/27 06:05:56;;;;;;;17.70;4.22;;;1.50;99.90;;;;;;5031807;28;20033;-53
2022/02/27 06:08:22;;;;;;;18.65;5.15;;;1.50;99.90;;;;;;5032332;28;20029;-53
2022/02/27 06:10:47;;;;;;;11.80;4.00;;;1.40;99.90;;;;;;5032114;28;20025;-53
2022/02/27 06:13:16;;;;;;;17.17;5.15;;;1.40;99.90;;;;;;5032200;28;20054;-53
2022/02/27 06:15:42;;;;;;;16.10;4.30;;;1.30;99.90;;;;;;5032403;28;20079;-53
2022/02/27 06:18:08;;;;;;;13.63;4.68;;;1.30;99.90;;;;;;5032625;28;20029;-53
2022/02/27 06:20:33;;;;;;;13.85;4.10;;;1.40;99.90;;;;;;5032093;28;20014;-53
2022/02/27 06:22:59;;;;;;;14.88;4.40;;;1.50;99.90;;;;;;5032694;28;20478;-54
2022/02/27 06:25:25;;;;;;;16.42;4.65;;;1.60;99.90;;;;;;5032264;28;20026;-54
2022/02/27 06:27:50;;;;;;;22.27;3.92;;;1.80;99.90;;;;;;5032106;28;20033;-54
2022/02/27 06:30:18;;;;;;;8.60;3.72;;;1.60;99.90;;;;;;5031457;28;20025;-54
2022/02/27 06:32:49;;;;;;;13.65;4.70;;;1.70;99.90;;;;;;5030969;28;20556;-54
2022/02/27 06:35:17;;;;;;;12.82;4.18;;;1.60;99.90;;;;;;5032860;28;20057;-55
2022/02/27 06:37:43;;;;;;;14.50;4.38;;;1.70;99.90;;;;;;5031288;28;20063;-53
2022/02/27 06:40:09;;;;;;;7.50;3.58;;;1.70;99.90;;;;;;5031706;28;20083;-54
2022/02/27 06:42:36;;;;;;;14.23;4.20;;;1.70;99.90;;;;;;5031679;28;20021;-54
2022/02/27 06:45:02;;;;;;;12.55;4.20;;;1.70;99.90;;;;;;5031601;28;20113;-54
2022/02/27 06:47:27;;;;;;;10.85;4.35;;;1.60;99.90;;;;;;5031434;28;20079;-54
2022/02/27 06:49:53;;;;;;;14.07;4.07;;;1.60;99.90;;;;;;5030281;28;20029;-55
2022/02/27 06:52:19;;;;;;;15.57;4.03;;;1.50;99.90;;;;;;5031498;28;20036;-55
2022/02/27 06:54:44;;;;;;;13.77;4.05;;;1.60;99.90;;;;;;5031519;28;20022;-54
2022/02/27 06:57:10;;;;;;;10.32;4.10;;;1.60;99.90;;;;;;5032326;28;20017;-54
2022/02/27 06:59:35;;;;;;;14.82;4.38;;;1.60;99.90;;;;;;5031708;28;20021;-54
2022/02/27 07:02:01;;;;;;;9.80;3.78;;;1.60;99.90;;;;;;5031061;28;20065;-54
2022/02/27 07:04:27;;;;;;;14.15;4.63;;;1.70;99.90;;;;;;5031331;28;20124;-54
2022/02/27 07:06:52;;;;;;;11.30;3.90;;;1.80;99.90;;;;;;5031206;28;20032;-54
2022/02/27 07:09:20;;;;;;;17.73;4.22;;;1.90;99.90;;;;;;5031257;28;20017;-54
2022/02/27 07:11:46;;;;;;;11.73;3.60;;;1.70;99.90;;;;;;5030280;28;20029;-54
2022/02/27 07:14:11;;;;;;;16.02;3.80;;;1.70;99.90;;;;;;5031390;28;20026;-54
2022/02/27 07:16:38;;;;;;;10.35;3.70;;;1.90;99.90;;;;;;5031279;28;20052;-54
2022/02/27 07:19:04;;;;;;;15.00;4.13;;;1.90;99.90;;;;;;5035174;28;20037;-54
2022/02/27 07:21:32;;;;;;;17.10;4.15;;;2.00;99.90;;;;;;5035514;28;20029;-54
2022/02/27 07:23:59;;;;;;;9.30;3.70;;;2.00;99.90;;;;;;5035486;28;20020;-54
2022/02/27 07:26:25;;;;;;;12.23;3.80;;;2.10;99.90;;;;;;5035006;28;20025;-54
2022/02/27 07:28:52;;;;;;;12.18;3.90;;;2.10;99.90;;;;;;5035114;28;20387;-54
2022/02/27 07:31:18;;;;;;;14.35;3.67;;;2.20;99.90;;;;;;5034335;28;20100;-54
2022/02/27 07:33:44;;;;;;;13.18;3.50;;;2.20;99.90;;;;;;5035227;28;20030;-54
2022/02/27 07:36:10;;;;;;;14.82;4.10;;;2.10;99.90;;;;;;5034513;28;20592;-54
2022/02/27 07:38:36;;;;;;;13.07;3.90;;;2.00;99.90;;;;;;5034820;28;20030;-54
2022/02/27 07:41:02;;;;;;;9.25;3.10;;;2.00;99.90;;;;;;5034759;28;20101;-54
2022/02/27 07:43:27;;;;;;;11.23;3.67;;;2.10;99.90;;;;;;5034507;28;20033;-54
2022/02/27 07:45:53;;;;;;;11.73;3.78;;;2.20;99.90;;;;;;5034736;28;20033;-54
2022/02/27 07:48:19;;;;;;;15.63;4.38;;;2.30;99.90;;;;;;5034475;28;20021;-54
2022/02/27 07:50:44;;;;;;;11.95;3.25;;;2.40;99.90;;;;;;5033885;28;20014;-54
2022/02/27 07:53:10;;;;;;;11.23;3.92;;;2.50;99.90;;;;;;5034415;28;20047;-54
2022/02/27 07:55:36;;;;;;;7.70;3.33;;;2.70;99.90;;;;;;5035222;28;20022;-54
2022/02/27 07:58:02;;;;;;;11.88;3.15;;;2.70;99.90;;;;;;5034115;28;20032;-54
2022/02/27 08:00:31;;;;;;;11.63;3.78;;;2.70;99.90;;;;;;5034528;28;20037;-54
2022/02/27 08:02:57;;;;;;;7.78;3.20;;;2.70;99.90;;;;;;5034833;28;20029;-54
2022/02/27 08:05:22;;;;;;;11.00;3.83;;;2.90;99.90;;;;;;5034476;28;20037;-54
2022/02/27 08:07:48;;;;;;;15.98;7.20;;;2.90;99.90;;;;;;5033925;28;20116;-55
2022/02/27 08:10:14;;;;;;;16.15;6.53;;;3.00;99.90;;;;;;5034447;28;20085;-54
2022/02/27 08:12:45;;;;;;;18.33;5.45;;;3.00;99.90;;;;;;5034311;28;20052;-54
2022/02/27 08:15:14;;;;;;;8.63;4.00;;;3.10;99.90;;;;;;5033561;28;20360;-55
2022/02/27 08:17:39;;;;;;;7.78;3.75;;;3.10;99.90;;;;;;5033583;28;20025;-54
2022/02/27 08:20:06;;;;;;;14.77;5.07;;;3.10;99.90;;;;;;5032013;28;20368;-54
2022/02/27 08:22:32;;;;;;;14.32;5.18;;;3.20;99.90;;;;;;5032812;28;20017;-54
2022/02/27 08:24:57;;;;;;;8.85;4.28;;;3.40;99.90;;;;;;5033499;28;20048;-55
2022/02/27 08:27:23;;;;;;;10.45;4.50;;;4.20;99.90;;;;;;5034256;28;20029;-55
2022/02/27 08:29:52;;;;;;;8.93;3.90;;;5.30;99.90;;;;;;5033295;28;20029;-55
2022/02/27 08:32:19;;;;;;;9.23;3.83;;;6.20;99.90;;;;;;5035137;28;20094;-55
2022/02/27 08:34:44;;;;;;;9.40;3.75;;;6.90;99.90;;;;;;5034027;28;20064;-55
2022/02/27 08:37:10;;;;;;;20.52;7.45;;;7.50;99.90;;;;;;5034037;28;20057;-55
2022/02/27 08:39:36;;;;;;;13.48;4.90;;;8.10;99.90;;;;;;5033785;28;20018;-55
2022/02/27 08:42:04;;;;;;;9.57;3.53;;;8.60;99.90;;;;;;5032979;28;20022;-55
2022/02/27 08:44:33;;;;;;;9.13;4.20;;;8.60;99.90;;;;;;5033624;28;20026;-55
2022/02/27 08:46:59;;;;;;;8.07;3.05;;;8.40;99.90;;;;;;5033424;28;20490;-55
2022/02/27 08:49:25;;;;;;;8.25;3.30;;;8.80;99.90;;;;;;5032986;28;20105;-55
2022/02/27 08:51:51;;;;;;;10.43;3.47;;;9.00;99.90;;;;;;5032761;28;20116;-55
2022/02/27 08:54:17;;;;;;;7.53;3.53;;;9.40;99.90;;;;;;5033032;28;20049;-55
2022/02/27 08:56:43;;;;;;;9.77;4.50;;;9.30;99.90;;;;;;5033391;28;20126;-55
2022/02/27 08:59:09;;;;;;;8.15;3.88;;;9.40;99.90;;;;;;5033129;28;20041;-55
2022/02/27 09:01:35;;;;;;;7.68;3.38;;;9.50;99.90;;;;;;5033045;28;20048;-55
2022/02/27 09:04:01;;;;;;;14.05;4.55;;;9.30;99.90;;;;;;5032743;28;20100;-55
2022/02/27 09:06:26;;;;;;;11.00;4.93;;;9.40;99.90;;;;;;5031668;28;20029;-55
2022/02/27 09:08:52;;;;;;;11.23;3.70;;;10.00;99.90;;;;;;5032554;28;20038;-55
2022/02/27 09:11:18;;;;;;;7.53;3.30;;;10.30;99.90;;;;;;5032193;28;20029;-55
2022/02/27 09:13:44;;;;;;;14.68;5.35;;;10.00;99.90;;;;;;5032519;28;20037;-55
2022/02/27 09:16:10;;;;;;;9.10;3.38;;;10.40;99.90;;;;;;5032113;28;20403;-55
2022/02/27 09:18:35;;;;;;;10.90;4.32;;;10.10;98.90;;;;;;5032372;28;20033;-55
2022/02/27 09:21:01;;;;;;;9.10;3.30;;;9.80;98.80;;;;;;5032387;28;20413;-55
2022/02/27 09:23:27;;;;;;;6.68;2.78;;;9.70;99.20;;;;;;5032219;28;20030;-54
2022/02/27 09:25:53;;;;;;;10.65;3.83;;;9.90;98.30;;;;;;5033305;28;20099;-54
2022/02/27 09:28:19;;;;;;;7.78;3.38;;;9.50;98.80;;;;;;5033319;28;20021;-55
2022/02/27 09:30:45;;;;;;;7.13;4.18;;;9.90;98.10;;;;;;5033639;28;20053;-55
2022/02/27 09:33:10;;;;;;;8.15;3.55;;;10.30;98.70;;;;;;5032154;28;20064;-55
2022/02/27 09:35:36;;;;;;;9.82;4.32;;;10.60;97.30;;;;;;5032143;28;20025;-55
2022/02/27 09:38:02;;;;;;;6.20;2.55;;;10.50;97.10;;;;;;5032025;28;20032;-55
2022/02/27 09:40:28;;;;;;;8.38;4.18;;;11.10;96.00;;;;;;5031631;28;20041;-55
2022/02/27 09:42:55;;;;;;;7.75;4.00;;;10.60;95.80;;;;;;5032048;28;20032;-55
2022/02/27 09:45:22;;;;;;;6.93;3.17;;;10.10;95.90;;;;;;5032195;28;20041;-54
2022/02/27 09:47:49;;;;;;;9.48;4.00;;;9.70;96.10;;;;;;5032485;28;20033;-54
2022/02/27 09:50:15;;;;;;;8.20;3.22;;;9.80;96.10;;;;;;5032444;28;20112;-54
2022/02/27 09:52:41;;;;;;;8.70;3.65;;;9.90;95.70;;;;;;5032307;28;20071;-55
2022/02/27 09:55:09;;;;;;;9.32;2.97;;;9.70;96.50;;;;;;5030705;28;20033;-55
2022/02/27 09:57:35;;;;;;;6.10;1.90;;;9.90;96.90;;;;;;5032241;28;20040;-55
2022/02/27 10:00:03;;;;;;;6.35;2.38;;;10.50;94.60;;;;;;5031703;28;20026;-55
2022/02/27 10:02:29;;;;;;;8.82;2.80;;;10.70;95.00;;;;;;5031876;28;20044;-55
2022/02/27 10:04:59;;;;;;;8.90;3.97;;;10.50;94.50;;;;;;5031653;28;20313;-55
2022/02/27 10:07:25;;;;;;;7.85;2.78;;;10.80;94.60;;;;;;5029872;28;20033;-54
2022/02/27 10:10:04;;;;;;;6.75;2.88;;;10.70;94.10;;;;;;5031250;28;20032;-55
2022/02/27 10:12:29;;;;;;;4.10;1.92;;;11.10;95.10;;;;;;5030994;28;20134;-55
2022/02/27 10:15:01;;;;;;;6.78;2.60;;;11.50;94.70;;;;;;5031130;28;20057;-55
2022/02/27 10:17:30;;;;;;;6.00;2.00;;;11.30;93.70;;;;;;5030924;28;20460;-55
2022/02/27 10:19:56;;;;;;;5.55;2.30;;;11.00;92.60;;;;;;5030711;28;20037;-55
2022/02/27 10:22:34;;;;;;;4.35;2.22;;;10.90;93.40;;;;;;5031065;28;20033;-55
2022/02/27 10:25:01;;;;;;;6.85;3.05;;;11.10;93.60;;;;;;5031032;28;20032;-55
2022/02/27 10:27:54;;;;;;;5.43;1.60;;;11.10;93.10;;;;;;5030570;28;20025;-55
2022/02/27 10:30:21;;;;;;;8.80;4.50;;;11.00;92.30;;;;;;5030843;28;20049;-54
2022/02/27 10:32:57;;;;;;;8.52;3.15;;;10.60;94.00;;;;;;5031085;28;20022;-55
2022/02/27 10:35:35;;;;;;;13.52;6.90;;;11.10;93.30;;;;;;5031334;28;20149;-55
2022/02/27 10:38:01;;;;;;;7.20;3.55;;;11.20;93.30;;;;;;5030620;28;20036;-55
2022/02/27 10:40:39;;;;;;;4.38;2.28;;;11.70;93.10;;;;;;5030896;28;20030;-55
2022/02/27 10:43:07;;;;;;;3.95;1.80;;;12.20;92.10;;;;;;5031574;28;20551;-55
2022/02/27 10:45:33;;;;;;;2.97;1.50;;;12.40;90.30;;;;;;5031543;28;20387;-55
2022/02/27 10:48:12;;;;;;;5.30;1.73;;;11.80;91.30;;;;;;5030721;28;20135;-55
2022/02/27 10:50:37;;;;;;;3.15;1.92;;;11.80;90.90;;;;;;5030922;28;20025;-55
2022/02/27 10:53:04;;;;;;;6.15;2.20;;;11.90;90.20;;;;;;5033843;28;20092;-55
2022/02/27 10:55:32;;;;;;;3.72;1.70;;;11.40;91.10;;;;;;5037443;28;20030;-55
2022/02/27 10:57:58;;;;;;;2.85;1.33;;;11.50;91.50;;;;;;5035575;28;20423;-55
2022/02/27 11:00:29;;;;;;;4.32;1.20;;;11.80;90.00;;;;;;5037196;28;20113;-55
2022/02/27 11:03:04;;;;;;;2.80;1.25;;;11.90;88.20;;;;;;5037004;28;20061;-55
2022/02/27 11:05:41;;;;;;;3.45;1.42;;;11.90;89.60;;;;;;5037165;28;20104;-55
2022/02/27 11:08:10;;;;;;;4.28;1.38;;;12.20;87.70;;;;;;5036754;28;20033;-54
2022/02/27 11:10:41;;;;;;;3.67;1.40;;;12.60;88.00;;;;;;5036870;28;20025;-55
2022/02/27 11:13:12;;;;;;;2.58;1.10;;;13.00;83.50;;;;;;5037486;28;20027;-55
2022/02/27 11:15:39;;;;;;;3.25;1.20;;;12.60;82.50;;;;;;5037179;28;20052;-55
2022/02/27 11:18:06;;;;;;;2.95;1.00;;;12.30;82.40;;;;;;5036972;28;20134;-55
2022/02/27 11:20:32;;;;;;;2.72;1.00;;;12.20;81.70;;;;;;5037165;28;20032;-55
2022/02/27 11:22:58;;;;;;;2.20;1.10;;;12.30;83.10;;;;;;5037131;28;20041;-55
2022/02/27 11:25:26;;;;;;;2.47;0.90;;;12.10;80.40;;;;;;5036731;28;20033;-54
2022/02/27 11:27:59;;;;;;;2.85;1.15;;;12.20;80.40;;;;;;5036948;28;20518;-55
2022/02/27 11:30:28;;;;;;;2.60;1.10;;;12.10;81.40;;;;;;5036450;28;20042;-55
2022/02/27 11:32:57;;;;;;;1.55;1.00;;;12.80;82.30;;;;;;5035518;28;20371;-55
2022/02/27 11:35:40;;;;;;;3.00;1.13;;;13.20;78.70;;;;;;5037144;28;20028;-55
2022/02/27 11:38:10;;;;;;;2.78;1.00;;;13.20;75.80;;;;;;5037122;28;20120;-55
2022/02/27 11:40:58;;;;;;;;;;;12.90;77.00;;;;;;5036871;28;20057;-55
2022/02/27 11:43:44;;;;;;;1.83;0.80;;;12.80;76.20;;;;;;5029398;28;20370;-55
2022/02/27 11:46:12;;;;;;;1.88;0.90;;;12.70;74.50;;;;;;5036684;28;20033;-55
2022/02/27 11:49:05;;;;;;;1.83;1.10;;;12.50;75.00;;;;;;5036691;28;20034;-54
2022/02/27 11:51:37;;;;;;;0.90;0.80;;;12.20;77.00;;;;;;5036421;28;20021;-55
2022/02/27 11:54:08;;;;;;;1.67;1.25;;;12.40;74.90;;;;;;5036686;28;20367;-54
2022/02/27 11:56:38;;;;;;;2.63;1.00;;;12.70;76.10;;;;;;5036115;28;20017;-55
2022/02/27 11:59:05;;;;;;;1.83;1.13;;;13.20;74.40;;;;;;5036475;28;20399;-55
2022/02/27 12:01:49;;;;;;;2.55;1.30;;;13.20;73.80;;;;;;5036124;28;20022;-55
2022/02/27 12:04:20;;;;;;;2.00;0.95;;;13.10;73.40;;;;;;5033828;28;20033;-55
2022/02/27 12:06:59;;;;;;;3.55;1.17;;;13.10;73.90;;;;;;5031830;28;20064;-55
2022/02/27 12:09:25;;;;;;;1.60;1.00;;;13.50;72.00;;;;;;5033009;28;20026;-55
2022/02/27 12:11:51;;;;;;;2.25;0.90;;;13.60;73.60;;;;;;5033703;28;20434;-55
2022/02/27 12:14:17;;;;;;;1.98;1.15;;;13.40;70.90;;;;;;5033208;28;20045;-54
2022/02/27 12:16:45;;;;;;;3.50;1.20;;;13.10;72.40;;;;;;5033311;28;20549;-55
2022/02/27 12:19:26;;;;;;;1.95;1.17;;;13.20;71.30;;;;;;5033916;28;20434;-54
2022/02/27 12:21:56;;;;;;;1.20;0.77;;;13.30;71.90;;;;;;5034416;28;20030;-55
2022/02/27 12:24:22;;;;;;;2.55;1.80;;;13.30;72.10;;;;;;5033187;28;20133;-55
2022/02/27 12:27:12;;;;;;;2.53;1.42;;;13.60;70.70;;;;;;5032774;28;20661;-55
2022/02/27 12:29:46;;;;;;;2.60;1.02;;;13.80;66.90;;;;;;5032925;28;20124;-54
2022/02/27 12:32:22;;;;;;;4.05;1.20;;;13.20;68.80;;;;;;5032686;28;20084;-54
2022/02/27 12:34:51;;;;;;;2.22;0.90;;;13.40;69.30;;;;;;5033312;28;20453;-54
2022/02/27 12:37:18;;;;;;;3.13;1.85;;;13.40;70.20;;;;;;5032968;28;20057;-53
2022/02/27 12:39:46;;;;;;;5.63;2.75;;;13.60;69.50;;;;;;5032501;28;20040;-54
2022/02/27 12:42:14;;;;;;;3.47;2.05;;;13.70;68.20;;;;;;5033397;28;20053;-56
2022/02/27 12:44:43;;;;;;;2.60;1.00;;;14.20;67.90;;;;;;5032655;28;20076;-55
2022/02/27 12:47:12;;;;;;;6.07;3.60;;;14.50;69.00;;;;;;5032805;28;20036;-54